Time,TemperatureF,DewpointF,PressureIn,WindDirection,WindDirectionDegrees,WindSpeedMPH,WindSpeedGustMPH,Humidity,HourlyPrecipIn,Conditions,Clouds,dailyrainin,SoftwareType,DateUTC
2013-11-27 00:05:00,21.7,10.0,30.41,NE,48,0.0,3.0,60,0.00,,,0.00,weatherlink.com 1.10,2013-11-27 06:05:00,
2013-11-27 00:20:00,21.5,10.0,30.40,WNW,302,0.0,4.0,61,0.00,,,0.00,weatherlink.com 1.10,2013-11-27 06:20:00,
2013-11-27 00:35:00,21.3,10.0,30.40,NW,317,0.0,4.0,61,0.00,,,0.00,weatherlink.com 1.10,2013-11-27 06:35:00,
2013-11-27 00:50:00,21.1,9.0,30.39,NW,315,0.0,5.0,61,0.00,,,0.00,weatherlink.com 1.10,2013-11-27 06:50:00,
2013-11-27 01:05:00,20.8,10.0,30.40,NW,307,1.0,3.0,62,0.00,,,0.00,weatherlink.com 1.10,2013-11-27 07:05:00,
2013-11-27 01:20:00,20.6,9.0,30.39,NW,326,0.0,5.0,61,0.00,,,0.00,weatherlink.com 1.10,2013-11-27 07:20:00,
2013-11-27 01:35:00,20.5,9.0,30.39,WNW,302,0.0,3.0,62,0.00,,,0.00,weatherlink.com 1.10,2013-11-27 07:35:00,
2013-11-27 01:50:00,20.4,9.0,30.40,WNW,298,1.0,1.0,62,0.00,,,0.00,weatherlink.com 1.10,2013-11-27 07:50:00,
2013-11-27 02:05:00,20.2,9.0,30.40,WNW,301,1.0,6.0,62,0.00,,,0.00,weatherlink.com 1.10,2013-11-27 08:05:00,
2013-11-27 02:20:00,20.0,9.0,30.41,NW,307,0.0,2.0,63,0.00,,,0.00,weatherlink.com 1.10,2013-11-27 08:20:00,
2013-11-27 02:35:00,19.8,9.0,30.41,WNW,295,0.0,1.0,64,0.00,,,0.00,weatherlink.com 1.10,2013-11-27 08:35:00,
2013-11-27 02:50:00,19.4,9.0,30.41,WNW,294,0.0,1.0,65,0.00,,,0.00,weatherlink.com 1.10,2013-11-27 08:50:00,
2013-11-27 03:20:00,18.6,10.0,30.40,WNW,296,0.0,0.0,68,0.00,,,0.00,weatherlink.com 1.10,2013-11-27 09:20:00,
2013-11-27 03:35:00,18.1,10.0,30.41,WNW,300,0.0,1.0,70,0.00,,,0.00,weatherlink.com 1.10,2013-11-27 09:35:00,
2013-11-27 03:50:00,18.0,10.0,30.40,WNW,290,0.0,1.0,71,0.00,,,0.00,weatherlink.com 1.10,2013-11-27 09:50:00,
2013-11-27 04:05:00,17.7,10.0,30.40,NW,314,0.0,0.0,71,0.00,,,0.00,weatherlink.com 1.10,2013-11-27 10:05:00,
2013-11-27 04:20:00,17.4,10.0,30.40,WNW,297,0.0,0.0,72,0.00,,,0.00,weatherlink.com 1.10,2013-11-27 10:20:00,
2013-11-27 04:35:00,17.1,10.0,30.40,NW,316,0.0,1.0,73,0.00,,,0.00,weatherlink.com 1.10,2013-11-27 10:35:00,
2013-11-27 04:50:00,17.0,10.0,30.40,NW,307,0.0,0.0,74,0.00,,,0.00,weatherlink.com 1.10,2013-11-27 10:50:00,
2013-11-27 05:06:00,16.6,10.0,30.40,WNW,300,0.0,0.0,74,0.00,,,0.00,weatherlink.com 1.10,2013-11-27 11:06:00,
2013-11-27 05:20:00,16.7,10.0,30.40,NW,321,0.0,1.0,74,0.00,,,0.00,weatherlink.com 1.10,2013-11-27 11:20:00,
2013-11-27 05:36:00,16.7,10.0,30.41,WNW,298,0.0,1.0,74,0.00,,,0.00,weatherlink.com 1.10,2013-11-27 11:36:00,
2013-11-27 05:51:00,16.5,10.0,30.41,West,280,0.0,0.0,75,0.00,,,0.00,weatherlink.com 1.10,2013-11-27 11:51:00,
2013-11-27 06:06:00,15.9,10.0,30.41,West,280,0.0,0.0,76,0.00,,,0.00,weatherlink.com 1.10,2013-11-27 12:06:00,
2013-11-27 06:21:00,15.8,10.0,30.42,West,280,0.0,0.0,77,0.00,,,0.00,weatherlink.com 1.10,2013-11-27 12:21:00,
2013-11-27 06:36:00,15.9,10.0,30.42,WNW,288,0.0,1.0,77,0.00,,,0.00,weatherlink.com 1.10,2013-11-27 12:36:00,
2013-11-27 06:51:00,16.0,10.0,30.42,WNW,295,0.0,1.0,76,0.00,,,0.00,weatherlink.com 1.10,2013-11-27 12:51:00,
2013-11-27 07:06:00,15.9,10.0,30.43,NW,312,0.0,1.0,77,0.00,,,0.00,weatherlink.com 1.10,2013-11-27 13:06:00,
2013-11-27 07:21:00,15.9,10.0,30.44,NW,304,0.0,1.0,76,0.00,,,0.00,weatherlink.com 1.10,2013-11-27 13:21:00,
2013-11-27 07:36:00,16.0,10.0,30.44,NW,314,0.0,1.0,76,0.00,,,0.00,weatherlink.com 1.10,2013-11-27 13:36:00,
2013-11-27 07:51:00,16.1,10.0,30.44,NW,322,0.0,1.0,77,0.00,,,0.00,weatherlink.com 1.10,2013-11-27 13:51:00,
2013-11-27 08:06:00,16.6,10.0,30.44,NNW,330,0.0,3.0,75,0.00,,,0.00,weatherlink.com 1.10,2013-11-27 14:06:00,
2013-11-27 08:21:00,17.1,10.0,30.44,North,350,0.0,2.0,74,0.00,,,0.00,weatherlink.com 1.10,2013-11-27 14:21:00,
2013-11-27 08:36:00,17.7,10.0,30.44,NNW,327,0.0,2.0,73,0.00,,,0.00,weatherlink.com 1.10,2013-11-27 14:36:00,
2013-11-27 08:51:00,18.3,10.0,30.45,NW,304,0.0,4.0,71,0.00,,,0.00,weatherlink.com 1.10,2013-11-27 14:51:00,
2013-11-27 09:06:00,19.4,11.0,30.44,NW,326,0.0,0.0,69,0.00,,,0.00,weatherlink.com 1.10,2013-11-27 15:06:00,
2013-11-27 09:21:00,19.9,10.0,30.44,North,349,1.0,2.0,66,0.00,,,0.00,weatherlink.com 1.10,2013-11-27 15:21:00,
2013-11-27 09:36:00,20.5,10.0,30.44,NW,309,0.0,1.0,64,0.00,,,0.00,weatherlink.com 1.10,2013-11-27 15:36:00,
2013-11-27 09:51:00,21.2,10.0,30.43,NNW,329,0.0,2.0,62,0.00,,,0.00,weatherlink.com 1.10,2013-11-27 15:51:00,
2013-11-27 10:06:00,21.6,10.0,30.44,WNW,301,0.0,2.0,60,0.00,,,0.00,weatherlink.com 1.10,2013-11-27 16:06:00,
2013-11-27 10:21:00,22.3,10.0,30.44,WNW,283,0.0,3.0,59,0.00,,,0.00,weatherlink.com 1.10,2013-11-27 16:21:00,
2013-11-27 10:36:00,22.9,10.0,30.45,NNW,328,0.0,4.0,57,0.00,,,0.00,weatherlink.com 1.10,2013-11-27 16:36:00,
2013-11-27 10:51:00,23.7,10.0,30.44,NNW,340,0.0,1.0,56,0.00,,,0.00,weatherlink.com 1.10,2013-11-27 16:51:00,
2013-11-27 11:06:00,23.9,9.0,30.43,NW,321,0.0,3.0,54,0.00,,,0.00,weatherlink.com 1.10,2013-11-27 17:06:00,
2013-11-27 11:21:00,24.6,10.0,30.41,ENE,72,0.0,2.0,54,0.00,,,0.00,weatherlink.com 1.10,2013-11-27 17:21:00,
2013-11-27 11:36:00,25.5,11.0,30.40,WNW,301,0.0,1.0,54,0.00,,,0.00,weatherlink.com 1.10,2013-11-27 17:36:00,
2013-11-27 11:51:00,26.1,10.0,30.40,NW,315,0.0,5.0,50,0.00,,,0.00,weatherlink.com 1.10,2013-11-27 17:51:00,
2013-11-27 12:06:00,27.2,11.0,30.39,SE,133,0.0,3.0,51,0.00,,,0.00,weatherlink.com 1.10,2013-11-27 18:06:00,
2013-11-27 12:21:00,27.8,10.0,30.38,NW,320,0.0,4.0,47,0.00,,,0.00,weatherlink.com 1.10,2013-11-27 18:21:00,
2013-11-27 12:36:00,29.2,11.0,30.37,SSW,195,0.0,1.0,47,0.00,,,0.00,weatherlink.com 1.10,2013-11-27 18:36:00,
2013-11-27 12:51:00,29.8,10.0,30.36,SE,124,0.0,4.0,44,0.00,,,0.00,weatherlink.com 1.10,2013-11-27 18:51:00,
2013-11-27 13:07:00,30.8,10.0,30.35,NW,315,0.0,3.0,41,0.00,,,0.00,weatherlink.com 1.10,2013-11-27 19:07:00,
2013-11-27 13:22:00,31.2,10.0,30.34,West,262,0.0,2.0,42,0.00,,,0.00,weatherlink.com 1.10,2013-11-27 19:22:00,
2013-11-27 13:37:00,31.4,10.0,30.34,NW,304,0.0,2.0,41,0.00,,,0.00,weatherlink.com 1.10,2013-11-27 19:37:00,
2013-11-27 13:52:00,32.1,10.0,30.32,WNW,303,0.0,3.0,40,0.00,,,0.00,weatherlink.com 1.10,2013-11-27 19:52:00,
2013-11-27 14:07:00,32.0,10.0,30.32,WNW,300,2.0,4.0,40,0.00,,,0.00,weatherlink.com 1.10,2013-11-27 20:07:00,
2013-11-27 14:22:00,32.5,10.0,30.32,WNW,302,0.0,2.0,39,0.00,,,0.00,weatherlink.com 1.10,2013-11-27 20:22:00,
2013-11-27 14:37:00,31.9,11.0,30.31,NNE,29,0.0,4.0,41,0.00,,,0.00,weatherlink.com 1.10,2013-11-27 20:37:00,
2013-11-27 14:52:00,31.5,10.0,30.30,SE,143,0.0,4.0,40,0.00,,,0.00,weatherlink.com 1.10,2013-11-27 20:52:00,
2013-11-27 15:07:00,31.4,10.0,30.30,SE,127,0.0,1.0,41,0.00,,,0.00,weatherlink.com 1.10,2013-11-27 21:07:00,
2013-11-27 15:22:00,31.5,10.0,30.30,ESE,117,0.0,5.0,41,0.00,,,0.00,weatherlink.com 1.10,2013-11-27 21:22:00,
2013-11-27 15:37:00,31.5,11.0,30.29,ESE,108,0.0,4.0,42,0.00,,,0.00,weatherlink.com 1.10,2013-11-27 21:37:00,
2013-11-27 15:52:00,31.5,11.0,30.30,ESE,112,0.0,4.0,42,0.00,,,0.00,weatherlink.com 1.10,2013-11-27 21:52:00,
2013-11-27 16:07:00,31.3,11.0,30.29,SE,131,0.0,3.0,42,0.00,,,0.00,weatherlink.com 1.10,2013-11-27 22:07:00,
2013-11-27 16:22:00,31.2,11.0,30.29,SSE,153,0.0,3.0,43,0.00,,,0.00,weatherlink.com 1.10,2013-11-27 22:22:00,
2013-11-27 16:37:00,30.9,11.0,30.29,ESE,102,0.0,3.0,43,0.00,,,0.00,weatherlink.com 1.10,2013-11-27 22:37:00,
2013-11-27 16:52:00,30.5,10.0,30.28,SSE,158,0.0,5.0,43,0.00,,,0.00,weatherlink.com 1.10,2013-11-27 22:52:00,
2013-11-27 17:07:00,30.0,11.0,30.27,SSE,150,0.0,2.0,45,0.00,,,0.00,weatherlink.com 1.10,2013-11-27 23:07:00,
2013-11-27 17:22:00,29.4,11.0,30.27,SE,124,0.0,1.0,47,0.00,,,0.00,weatherlink.com 1.10,2013-11-27 23:22:00,
2013-11-27 17:37:00,29.0,11.0,30.27,SE,141,0.0,1.0,48,0.00,,,0.00,weatherlink.com 1.10,2013-11-27 23:37:00,
2013-11-27 17:52:00,28.7,12.0,30.27,South,178,0.0,2.0,49,0.00,,,0.00,weatherlink.com 1.10,2013-11-27 23:52:00,
2013-11-27 18:07:00,28.5,12.0,30.26,ESE,116,0.0,1.0,50,0.00,,,0.00,weatherlink.com 1.10,2013-11-28 00:07:00,
2013-11-27 18:22:00,28.4,12.0,30.25,ESE,123,0.0,1.0,50,0.00,,,0.00,weatherlink.com 1.10,2013-11-28 00:22:00,
2013-11-27 18:37:00,28.2,12.0,30.25,SE,129,0.0,2.0,51,0.00,,,0.00,weatherlink.com 1.10,2013-11-28 00:37:00,
2013-11-27 18:52:00,28.1,12.0,30.24,SSE,152,0.0,4.0,51,0.00,,,0.00,weatherlink.com 1.10,2013-11-28 00:52:00,
2013-11-27 19:07:00,28.0,12.0,30.23,SE,143,0.0,8.0,51,0.00,,,0.00,weatherlink.com 1.10,2013-11-28 01:07:00,
2013-11-27 19:22:00,28.0,12.0,30.22,SE,146,0.0,7.0,51,0.00,,,0.00,weatherlink.com 1.10,2013-11-28 01:22:00,
2013-11-27 19:37:00,28.1,12.0,30.21,SE,127,2.0,4.0,52,0.00,,,0.00,weatherlink.com 1.10,2013-11-28 01:37:00,
2013-11-27 19:52:00,27.9,12.0,30.21,SSE,165,0.0,4.0,52,0.00,,,0.00,weatherlink.com 1.10,2013-11-28 01:52:00,
2013-11-27 20:07:00,27.9,13.0,30.22,SSE,155,5.0,5.0,53,0.00,,,0.00,weatherlink.com 1.10,2013-11-28 02:07:00,
2013-11-27 20:22:00,28.0,13.0,30.21,SE,138,0.0,5.0,53,0.00,,,0.00,weatherlink.com 1.10,2013-11-28 02:22:00,
2013-11-27 20:37:00,28.3,13.0,30.20,SSE,155,0.0,4.0,53,0.00,,,0.00,weatherlink.com 1.10,2013-11-28 02:37:00,
2013-11-27 20:53:00,28.6,13.0,30.20,ENE,75,2.0,6.0,52,0.00,,,0.00,weatherlink.com 1.10,2013-11-28 02:53:00,
2013-11-27 21:08:00,28.9,13.0,30.20,SSW,197,3.0,7.0,52,0.00,,,0.00,weatherlink.com 1.10,2013-11-28 03:08:00,
2013-11-27 21:23:00,29.0,13.0,30.20,ESE,109,6.0,7.0,52,0.00,,,0.00,weatherlink.com 1.10,2013-11-28 03:23:00,
2013-11-27 21:38:00,29.2,13.0,30.20,ESE,110,0.0,6.0,52,0.00,,,0.00,weatherlink.com 1.10,2013-11-28 03:38:00,
2013-11-27 21:53:00,29.5,14.0,30.19,SE,127,0.0,6.0,52,0.00,,,0.00,weatherlink.com 1.10,2013-11-28 03:53:00,
2013-11-27 22:08:00,29.5,14.0,30.20,East,98,0.0,7.0,52,0.00,,,0.00,weatherlink.com 1.10,2013-11-28 04:08:00,
2013-11-27 22:23:00,29.3,14.0,30.19,SSW,202,0.0,7.0,52,0.00,,,0.00,weatherlink.com 1.10,2013-11-28 04:23:00,
2013-11-27 22:38:00,29.3,14.0,30.19,East,79,0.0,7.0,52,0.00,,,0.00,weatherlink.com 1.10,2013-11-28 04:38:00,
2013-11-27 22:53:00,29.4,14.0,30.19,SSE,162,3.0,11.0,53,0.00,,,0.00,weatherlink.com 1.10,2013-11-28 04:53:00,
2013-11-27 23:08:00,29.3,14.0,30.20,SE,146,2.0,6.0,53,0.00,,,0.00,weatherlink.com 1.10,2013-11-28 05:08:00,
2013-11-27 23:23:00,29.2,14.0,30.19,SE,129,3.0,9.0,53,0.00,,,0.00,weatherlink.com 1.10,2013-11-28 05:23:00,
2013-11-27 23:38:00,29.1,14.0,30.19,SE,127,0.0,11.0,53,0.00,,,0.00,weatherlink.com 1.10,2013-11-28 05:38:00,
2013-11-27 23:53:00,29.0,14.0,30.20,SSE,162,0.0,6.0,53,0.00,,,0.00,weatherlink.com 1.10,2013-11-28 05:53:00,